Decoded Metar for LCPH (PAPHOS in CYPRUS) (IATA:PFO) | Meteo·Mobile Aviation Weather
aviador You're here:

LCPH Decoded Metar

PAPHOS in CYPRUS
Report Time2019-11-12 04:00:00
UTC Time2019-11-12 04:09:37
Flight Rules vfr VFR
WindVRB at 02 kt
Visibility9999 m
Phenomena:N/A
Clouds:N/A
Expected CloudBase > 5,600 ft AGL from Temp-Dew spread
CeilingNone
Temp17°C (ISA +2)
Dew Point03°C (39% RH)
AAT14.8°C
QNH1016 hPa
Density Alt272 ft
Elevation26 ft
Report Wrong Elevation
Raw Report
METAR LCPH 120400Z VRB02KT CAVOK 17/03 Q1016=

Extra information for LCPH:More info

Metar Taf Metar & Taf Last 4 Metars F.Rules Stats Wind Profile Meteogram Temp Stats Airport Information Weather charts Add Link Nearby VenuesMetar ALERT Operation Metar Decoded Social comments